sensor_id;sensor_type;location;lat;lon;timestamp;pressure;altitude;pressure_sealevel;temperature;humidity
36254;BME280;22291;52.250;21.228;2023-02-17T11:07:45;100151.39;;;5.45;99.22
36254;BME280;22291;52.250;21.228;2023-02-17T11:10:30;100138.05;;;5.37;99.23
36254;BME280;22291;52.250;21.228;2023-02-17T11:13:01;100141.80;;;5.38;99.41
36254;BME280;22291;52.250;21.228;2023-02-17T11:15:41;100138.29;;;5.38;99.25
36254;BME280;22291;52.250;21.228;2023-02-17T11:18:20;100127.84;;;5.41;99.52
36254;BME280;22291;52.250;21.228;2023-02-17T11:20:58;100120.27;;;5.46;99.78
36254;BME280;22291;52.250;21.228;2023-02-17T11:23:28;100112.73;;;5.48;99.64
36254;BME280;22291;52.250;21.228;2023-02-17T11:26:02;100108.98;;;5.49;100.00
36254;BME280;22291;52.250;21.228;2023-02-17T11:28:27;100097.74;;;5.47;99.93
36254;BME280;22291;52.250;21.228;2023-02-17T11:30:58;100100.67;;;5.48;99.82
36254;BME280;22291;52.250;21.228;2023-02-17T11:33:36;100089.38;;;5.51;99.96
36254;BME280;22291;52.250;21.228;2023-02-17T11:36:06;100082.39;;;5.55;100.00
36254;BME280;22291;52.250;21.228;2023-02-17T11:41:09;100067.59;;;5.60;99.98
36254;BME280;22291;52.250;21.228;2023-02-17T11:43:49;100065.16;;;5.61;100.00
36254;BME280;22291;52.250;21.228;2023-02-17T12:05:57;100021.42;;;5.64;100.00
36254;BME280;22291;52.250;21.228;2023-02-17T12:17:44;99993.26;;;5.61;100.00
36254;BME280;22291;52.250;21.228;2023-02-17T12:20:36;99983.31;;;5.61;100.00
36254;BME280;22291;52.250;21.228;2023-02-17T12:29:33;99966.32;;;5.71;100.00
36254;BME280;22291;52.250;21.228;2023-02-17T12:35:12;99955.52;;;5.79;100.00
36254;BME280;22291;52.250;21.228;2023-02-17T12:37:35;99938.82;;;5.82;100.00
36254;BME280;22291;52.250;21.228;2023-02-17T12:40:15;99925.94;;;5.84;100.00
36254;BME280;22291;52.250;21.228;2023-02-17T12:42:53;99917.84;;;5.87;100.00
36254;BME280;22291;52.250;21.228;2023-02-17T12:45:34;99919.17;;;5.89;100.00
36254;BME280;22291;52.250;21.228;2023-02-17T12:47:59;99902.78;;;5.91;100.00
36254;BME280;22291;52.250;21.228;2023-02-17T12:50:37;99912.40;;;5.94;100.00
36254;BME280;22291;52.250;21.228;2023-02-17T12:53:11;99911.05;;;5.94;100.00
36254;BME280;22291;52.250;21.228;2023-02-17T12:55:43;99904.34;;;5.94;100.00
36254;BME280;22291;52.250;21.228;2023-02-17T12:58:28;99904.87;;;5.94;100.00
36254;BME280;22291;52.250;21.228;2023-02-17T13:01:06;99898.20;;;5.91;100.00
36254;BME280;22291;52.250;21.228;2023-02-17T13:03:36;99903.06;;;5.89;100.00
36254;BME280;22291;52.250;21.228;2023-02-17T13:06:20;99897.42;;;5.88;100.00
36254;BME280;22291;52.250;21.228;2023-02-17T13:08:55;99903.34;;;5.88;100.00
36254;BME280;22291;52.250;21.228;2023-02-17T13:11:32;99888.08;;;5.86;100.00
36254;BME280;22291;52.250;21.228;2023-02-17T13:14:27;99885.90;;;5.88;100.00
36254;BME280;22291;52.250;21.228;2023-02-17T13:16:58;99875.45;;;5.86;100.00
36254;BME280;22291;52.250;21.228;2023-02-17T13:19:29;99878.37;;;5.87;100.00
36254;BME280;22291;52.250;21.228;2023-02-17T13:22:00;99873.55;;;5.87;100.00
36254;BME280;22291;52.250;21.228;2023-02-17T13:24:35;99869.80;;;5.88;100.00
36254;BME280;22291;52.250;21.228;2023-02-17T13:27:21;99861.47;;;5.87;100.00
36254;BME280;22291;52.250;21.228;2023-02-17T13:30:05;99855.55;;;5.87;100.00
36254;BME280;22291;52.250;21.228;2023-02-17T13:32:35;99850.19;;;5.87;100.00
36254;BME280;22291;52.250;21.228;2023-02-17T13:37:52;99851.44;;;5.95;100.00
36254;BME280;22291;52.250;21.228;2023-02-17T13:42:53;99854.38;;;5.98;100.00
36254;BME280;22291;52.250;21.228;2023-02-17T13:45:27;99840.40;;;5.99;100.00
36254;BME280;22291;52.250;21.228;2023-02-17T13:47:59;99831.00;;;5.99;100.00
36254;BME280;22291;52.250;21.228;2023-02-17T13:50:38;99828.88;;;5.98;100.00
36254;BME280;22291;52.250;21.228;2023-02-17T13:55:59;99826.73;;;5.98;100.00
36254;BME280;22291;52.250;21.228;2023-02-17T13:58:33;99818.13;;;5.98;100.00
36254;BME280;22291;52.250;21.228;2023-02-17T14:01:03;99826.47;;;5.97;100.00
36254;BME280;22291;52.250;21.228;2023-02-17T14:03:34;99815.20;;;5.95;100.00
36254;BME280;22291;52.250;21.228;2023-02-17T14:06:10;99810.91;;;5.94;100.00
36254;BME280;22291;52.250;21.228;2023-02-17T14:08:41;99808.77;;;5.93;100.00
36254;BME280;22291;52.250;21.228;2023-02-17T14:11:11;99805.03;;;5.92;100.00
36254;BME280;22291;52.250;21.228;2023-02-17T14:13:42;99790.55;;;5.90;100.00
36254;BME280;22291;52.250;21.228;2023-02-17T14:16:33;99801.80;;;5.92;100.00
36254;BME280;22291;52.250;21.228;2023-02-17T14:19:12;99803.14;;;5.92;100.00
36254;BME280;22291;52.250;21.228;2023-02-17T14:21:43;99788.69;;;5.91;100.00
36254;BME280;22291;52.250;21.228;2023-02-17T14:24:34;99775.22;;;5.93;100.00
36254;BME280;22291;52.250;21.228;2023-02-17T14:27:05;99772.49;;;5.98;100.00
36254;BME280;22291;52.250;21.228;2023-02-17T14:29:44;99762.75;;;6.03;100.00
36254;BME280;22291;52.250;21.228;2023-02-17T14:32:33;99760.89;;;6.03;100.00
36254;BME280;22291;52.250;21.228;2023-02-17T14:37:43;99746.97;;;6.01;100.00
36254;BME280;22291;52.250;21.228;2023-02-17T14:40:20;99740.54;;;6.00;100.00
36254;BME280;22291;52.250;21.228;2023-02-17T14:42:49;99730.88;;;5.98;100.00
36254;BME280;22291;52.250;21.228;2023-02-17T14:45:18;99720.98;;;5.96;100.00
36254;BME280;22291;52.250;21.228;2023-02-17T14:47:46;99719.35;;;5.98;100.00
36254;BME280;22291;52.250;21.228;2023-02-17T14:50:15;99710.80;;;5.96;100.00
36254;BME280;22291;52.250;21.228;2023-02-17T14:52:47;99700.06;;;5.96;100.00
36254;BME280;22291;52.250;21.228;2023-02-17T14:58:05;99685.55;;;5.94;100.00
36254;BME280;22291;52.250;21.228;2023-02-17T15:00:34;99677.73;;;5.95;100.00
36254;BME280;22291;52.250;21.228;2023-02-17T15:03:00;99663.03;;;5.93;100.00
36254;BME280;22291;52.250;21.228;2023-02-17T15:05:28;99662.48;;;5.96;100.00
36254;BME280;22291;52.250;21.228;2023-02-17T15:07:54;99662.42;;;5.98;100.00
36254;BME280;22291;52.250;21.228;2023-02-17T15:10:26;99654.08;;;6.00;100.00
36254;BME280;22291;52.250;21.228;2023-02-17T15:12:55;99660.20;;;6.03;100.00
36254;BME280;22291;52.250;21.228;2023-02-17T15:15:22;99645.09;;;6.07;100.00
36254;BME280;22291;52.250;21.228;2023-02-17T15:17:48;99646.64;;;6.11;100.00
36254;BME280;22291;52.250;21.228;2023-02-17T15:20:17;99642.29;;;6.15;100.00
36254;BME280;22291;52.250;21.228;2023-02-17T15:22:44;99632.89;;;6.15;100.00
36254;BME280;22291;52.250;21.228;2023-02-17T15:25:16;99628.95;;;6.10;100.00
36254;BME280;22291;52.250;21.228;2023-02-17T15:27:47;99624.92;;;6.10;100.00
36254;BME280;22291;52.250;21.228;2023-02-17T15:30:19;99619.59;;;6.07;100.00
36254;BME280;22291;52.250;21.228;2023-02-17T15:32:48;99612.94;;;6.05;100.00
36254;BME280;22291;52.250;21.228;2023-02-17T15:35:20;99607.59;;;6.02;100.00
36254;BME280;22291;52.250;21.228;2023-02-17T15:37:51;99607.36;;;6.01;100.00
36254;BME280;22291;52.250;21.228;2023-02-17T15:40:26;99605.78;;;5.97;100.00
36254;BME280;22291;52.250;21.228;2023-02-17T15:42:57;99602.57;;;5.98;100.00
36254;BME280;22291;52.250;21.228;2023-02-17T15:45:32;99593.17;;;5.95;100.00
36254;BME280;22291;52.250;21.228;2023-02-17T15:48:11;99596.41;;;5.95;100.00
36254;BME280;22291;52.250;21.228;2023-02-17T15:50:40;99587.58;;;5.94;100.00
36254;BME280;22291;52.250;21.228;2023-02-17T15:53:06;99586.70;;;5.99;100.00
36254;BME280;22291;52.250;21.228;2023-02-17T15:55:34;99585.03;;;6.03;100.00
36254;BME280;22291;52.250;21.228;2023-02-17T15:58:03;99573.80;;;6.01;100.00
36254;BME280;22291;52.250;21.228;2023-02-17T16:00:33;99570.30;;;6.01;100.00
36254;BME280;22291;52.250;21.228;2023-02-17T16:03:02;99567.91;;;5.99;100.00
36254;BME280;22291;52.250;21.228;2023-02-17T16:05:30;99556.15;;;5.95;100.00
36254;BME280;22291;52.250;21.228;2023-02-17T16:07:59;99550.23;;;5.95;100.00
36254;BME280;22291;52.250;21.228;2023-02-17T16:10:28;99549.18;;;5.94;100.00
36254;BME280;22291;52.250;21.228;2023-02-17T16:12:58;99540.34;;;5.93;100.00
36254;BME280;22291;52.250;21.228;2023-02-17T16:15:30;99541.42;;;5.92;100.00
36254;BME280;22291;52.250;21.228;2023-02-17T16:17:57;99539.05;;;5.91;100.00
36254;BME280;22291;52.250;21.228;2023-02-17T16:20:31;99539.58;;;5.90;100.00
36254;BME280;22291;52.250;21.228;2023-02-17T16:23:00;99529.69;;;5.88;100.00
36254;BME280;22291;52.250;21.228;2023-02-17T16:25:30;99531.30;;;5.89;100.00
36254;BME280;22291;52.250;21.228;2023-02-17T16:27:58;99515.48;;;5.88;100.00
36254;BME280;22291;52.250;21.228;2023-02-17T16:30:33;99512.80;;;5.88;100.00
36254;BME280;22291;52.250;21.228;2023-02-17T16:33:02;99511.69;;;5.89;100.00
36254;BME280;22291;52.250;21.228;2023-02-17T16:35:31;99502.06;;;5.88;100.00
36254;BME280;22291;52.250;21.228;2023-02-17T16:38:07;99491.03;;;5.89;100.00
36254;BME280;22291;52.250;21.228;2023-02-17T16:40:45;99483.80;;;5.87;100.00
36254;BME280;22291;52.250;21.228;2023-02-17T16:43:21;99490.48;;;5.90;100.00
36254;BME280;22291;52.250;21.228;2023-02-17T16:45:54;99483.51;;;5.89;100.00
36254;BME280;22291;52.250;21.228;2023-02-17T16:48:26;99470.91;;;5.89;100.00
36254;BME280;22291;52.250;21.228;2023-02-17T16:50:56;99486.16;;;5.91;100.00
36254;BME280;22291;52.250;21.228;2023-02-17T16:53:24;99475.72;;;5.90;100.00
36254;BME280;22291;52.250;21.228;2023-02-17T16:55:53;99486.16;;;5.91;100.00
36254;BME280;22291;52.250;21.228;2023-02-17T16:58:23;99471.14;;;5.90;100.00
36254;BME280;22291;52.250;21.228;2023-02-17T17:00:54;99474.31;;;5.92;100.00
36254;BME280;22291;52.250;21.228;2023-02-17T17:03:21;99460.66;;;5.91;100.00
36254;BME280;22291;52.250;21.228;2023-02-17T17:05:50;99448.58;;;5.91;100.00
36254;BME280;22291;52.250;21.228;2023-02-17T17:08:17;99448.28;;;5.93;100.00
36254;BME280;22291;52.250;21.228;2023-02-17T17:10:45;99439.67;;;5.93;100.00
36254;BME280;22291;52.250;21.228;2023-02-17T17:13:14;99437.25;;;5.94;100.00
36254;BME280;22291;52.250;21.228;2023-02-17T17:15:43;99432.41;;;5.94;100.00
36254;BME280;22291;52.250;21.228;2023-02-17T17:18:17;99444.75;;;5.95;100.00
36254;BME280;22291;52.250;21.228;2023-02-17T17:20:46;99412.83;;;5.96;100.00
36254;BME280;22291;52.250;21.228;2023-02-17T17:23:16;99412.50;;;5.97;100.00
36254;BME280;22291;52.250;21.228;2023-02-17T17:25:45;99402.32;;;5.97;100.00
36254;BME280;22291;52.250;21.228;2023-02-17T17:28:16;99399.08;;;5.97;100.00
36254;BME280;22291;52.250;21.228;2023-02-17T17:30:47;99396.95;;;5.97;100.00
36254;BME280;22291;52.250;21.228;2023-02-17T17:33:13;99398.00;;;5.98;100.00
36254;BME280;22291;52.250;21.228;2023-02-17T17:35:43;99397.14;;;6.01;100.00
36254;BME280;22291;52.250;21.228;2023-02-17T17:38:14;99376.78;;;6.00;100.00
36254;BME280;22291;52.250;21.228;2023-02-17T17:40:41;99370.07;;;6.00;100.00
36254;BME280;22291;52.250;21.228;2023-02-17T17:43:21;99369.52;;;6.00;100.00
36254;BME280;22291;52.250;21.228;2023-02-17T17:45:51;99350.16;;;6.01;100.00
36254;BME280;22291;52.250;21.228;2023-02-17T17:48:17;99338.64;;;6.00;100.00
36254;BME280;22291;52.250;21.228;2023-02-17T17:50:47;99335.17;;;6.00;100.00
36254;BME280;22291;52.250;21.228;2023-02-17T17:53:14;99337.30;;;6.00;100.00
36254;BME280;22291;52.250;21.228;2023-02-17T17:55:40;99319.59;;;5.99;100.00
36254;BME280;22291;52.250;21.228;2023-02-17T17:58:07;99318.77;;;6.01;100.00
36254;BME280;22291;52.250;21.228;2023-02-17T18:00:33;99315.27;;;6.01;100.00
36254;BME280;22291;52.250;21.228;2023-02-17T18:03:00;99323.32;;;6.01;100.00
36254;BME280;22291;52.250;21.228;2023-02-17T18:05:28;99303.19;;;6.01;100.00
36254;BME280;22291;52.250;21.228;2023-02-17T18:07:56;99307.70;;;6.03;100.00
36254;BME280;22291;52.250;21.228;2023-02-17T18:10:24;99306.87;;;6.05;100.00
36254;BME280;22291;52.250;21.228;2023-02-17T18:12:50;99309.30;;;6.04;100.00
36254;BME280;22291;52.250;21.228;2023-02-17T18:15:18;99305.53;;;6.05;100.00
36254;BME280;22291;52.250;21.228;2023-02-17T18:17:48;99294.80;;;6.05;100.00
36254;BME280;22291;52.250;21.228;2023-02-17T18:20:16;99305.23;;;6.06;100.00
36254;BME280;22291;52.250;21.228;2023-02-17T18:22:43;99302.55;;;6.06;100.00
36254;BME280;22291;52.250;21.228;2023-02-17T18:25:11;99267.09;;;6.07;100.00
36254;BME280;22291;52.250;21.228;2023-02-17T18:27:40;99270.52;;;6.10;100.00
36254;BME280;22291;52.250;21.228;2023-02-17T18:30:12;99270.22;;;6.11;100.00
36254;BME280;22291;52.250;21.228;2023-02-17T18:32:40;99266.37;;;6.15;100.00
36254;BME280;22291;52.250;21.228;2023-02-17T18:35:09;99265.02;;;6.15;100.00
36254;BME280;22291;52.250;21.228;2023-02-17T18:37:35;99260.92;;;6.17;100.00
36254;BME280;22291;52.250;21.228;2023-02-17T18:40:03;99261.97;;;6.19;100.00
36254;BME280;22291;52.250;21.228;2023-02-17T18:42:32;99247.45;;;6.20;100.00
36254;BME280;22291;52.250;21.228;2023-02-17T18:45:00;99254.09;;;6.23;100.00
36254;BME280;22291;52.250;21.228;2023-02-17T18:47:26;99251.66;;;6.24;100.00
36254;BME280;22291;52.250;21.228;2023-02-17T18:49:53;99229.06;;;6.25;100.00
36254;BME280;22291;52.250;21.228;2023-02-17T18:52:21;99233.34;;;6.26;100.00
36254;BME280;22291;52.250;21.228;2023-02-17T18:54:49;99224.98;;;6.27;100.00
36254;BME280;22291;52.250;21.228;2023-02-17T18:57:15;99246.16;;;6.29;100.00
36254;BME280;22291;52.250;21.228;2023-02-17T18:59:42;99236.47;;;6.30;100.00
36254;BME280;22291;52.250;21.228;2023-02-17T19:02:10;99235.60;;;6.32;100.00
36254;BME280;22291;52.250;21.228;2023-02-17T19:04:38;99228.33;;;6.33;100.00
36254;BME280;22291;52.250;21.228;2023-02-17T19:07:04;99219.66;;;6.36;100.00
36254;BME280;22291;52.250;21.228;2023-02-17T19:09:36;99225.82;;;6.36;100.00
36254;BME280;22291;52.250;21.228;2023-02-17T19:12:05;99229.50;;;6.41;100.00
36254;BME280;22291;52.250;21.228;2023-02-17T19:14:34;99227.30;;;6.43;100.00
36254;BME280;22291;52.250;21.228;2023-02-17T19:17:01;99218.38;;;6.45;100.00
36254;BME280;22291;52.250;21.228;2023-02-17T19:19:28;99215.86;;;6.48;100.00
36254;BME280;22291;52.250;21.228;2023-02-17T19:21:57;99219.59;;;6.50;100.00
36254;BME280;22291;52.250;21.228;2023-02-17T19:24:24;99210.91;;;6.53;100.00
36254;BME280;22291;52.250;21.228;2023-02-17T19:26:50;99210.61;;;6.54;100.00
36254;BME280;22291;52.250;21.228;2023-02-17T19:29:18;99200.34;;;6.57;100.00
36254;BME280;22291;52.250;21.228;2023-02-17T19:31:44;99208.27;;;6.62;100.00
36254;BME280;22291;52.250;21.228;2023-02-17T19:34:12;99201.80;;;6.63;100.00
36254;BME280;22291;52.250;21.228;2023-02-17T19:36:40;99195.56;;;6.65;100.00
36254;BME280;22291;52.250;21.228;2023-02-17T19:39:06;99199.52;;;6.67;100.00
36254;BME280;22291;52.250;21.228;2023-02-17T19:41:32;99200.80;;;6.70;100.00
36254;BME280;22291;52.250;21.228;2023-02-17T19:43:58;99211.98;;;6.75;100.00
36254;BME280;22291;52.250;21.228;2023-02-17T19:46:25;99186.05;;;6.79;100.00
36254;BME280;22291;52.250;21.228;2023-02-17T19:48:52;99185.69;;;6.83;100.00
36254;BME280;22291;52.250;21.228;2023-02-17T19:51:20;99185.61;;;6.85;100.00
36254;BME280;22291;52.250;21.228;2023-02-17T19:53:47;99186.90;;;6.88;100.00
36254;BME280;22291;52.250;21.228;2023-02-17T19:56:20;99180.34;;;6.91;100.00
36254;BME280;22291;52.250;21.228;2023-02-17T19:58:50;99166.50;;;6.96;100.00
36254;BME280;22291;52.250;21.228;2023-02-17T20:01:28;99186.28;;;7.00;100.00
36254;BME280;22291;52.250;21.228;2023-02-17T20:03:55;99181.09;;;7.03;100.00
36254;BME280;22291;52.250;21.228;2023-02-17T20:06:26;99183.13;;;7.06;100.00
36254;BME280;22291;52.250;21.228;2023-02-17T20:08:58;99184.11;;;7.10;100.00
36254;BME280;22291;52.250;21.228;2023-02-17T20:11:31;99201.45;;;7.16;100.00
36254;BME280;22291;52.250;21.228;2023-02-17T20:14:00;99169.59;;;7.20;100.00
36254;BME280;22291;52.250;21.228;2023-02-17T20:16:29;99158.68;;;7.25;100.00
36254;BME280;22291;52.250;21.228;2023-02-17T20:18:55;99168.25;;;7.29;100.00
36254;BME280;22291;52.250;21.228;2023-02-17T20:21:26;99162.41;;;7.36;100.00
36254;BME280;22291;52.250;21.228;2023-02-17T20:23:57;99179.75;;;7.41;100.00
36254;BME280;22291;52.250;21.228;2023-02-17T20:26:32;99178.72;;;7.48;100.00
36254;BME280;22291;52.250;21.228;2023-02-17T20:28:59;99168.36;;;7.53;100.00
36254;BME280;22291;52.250;21.228;2023-02-17T20:31:27;99162.33;;;7.56;100.00
36254;BME280;22291;52.250;21.228;2023-02-17T20:33:55;99164.08;;;7.60;100.00
36254;BME280;22291;52.250;21.228;2023-02-17T20:36:24;99149.99;;;7.63;100.00
36254;BME280;22291;52.250;21.228;2023-02-17T20:38:52;99147.45;;;7.67;100.00
36254;BME280;22291;52.250;21.228;2023-02-17T20:41:21;99152.68;;;7.72;100.00
36254;BME280;22291;52.250;21.228;2023-02-17T20:43:50;99145.54;;;7.76;100.00
36254;BME280;22291;52.250;21.228;2023-02-17T20:46:22;99146.25;;;7.79;100.00
36254;BME280;22291;52.250;21.228;2023-02-17T20:48:53;99145.63;;;7.82;100.00
36254;BME280;22291;52.250;21.228;2023-02-17T20:51:23;99156.33;;;7.85;100.00
36254;BME280;22291;52.250;21.228;2023-02-17T20:53:51;99135.47;;;7.88;100.00
36254;BME280;22291;52.250;21.228;2023-02-17T20:56:22;99137.00;;;7.92;100.00
36254;BME280;22291;52.250;21.228;2023-02-17T20:58:51;99137.94;;;7.96;100.00
36254;BME280;22291;52.250;21.228;2023-02-17T21:01:19;99133.27;;;7.99;100.00
36254;BME280;22291;52.250;21.228;2023-02-17T21:03:47;99141.23;;;8.01;100.00
36254;BME280;22291;52.250;21.228;2023-02-17T21:06:21;99148.69;;;8.04;100.00
36254;BME280;22291;52.250;21.228;2023-02-17T21:09:01;99131.43;;;8.06;100.00
36254;BME280;22291;52.250;21.228;2023-02-17T21:11:27;99121.02;;;8.10;100.00
36254;BME280;22291;52.250;21.228;2023-02-17T21:13:55;99120.17;;;8.12;100.00
36254;BME280;22291;52.250;21.228;2023-02-17T21:16:26;99124.67;;;8.14;100.00
36254;BME280;22291;52.250;21.228;2023-02-17T21:18:59;99121.66;;;8.16;100.00
36254;BME280;22291;52.250;21.228;2023-02-17T21:21:28;99115.14;;;8.17;100.00
36254;BME280;22291;52.250;21.228;2023-02-17T21:23:58;99110.73;;;8.12;100.00
36254;BME280;22291;52.250;21.228;2023-02-17T21:26:26;99115.70;;;8.16;100.00
36254;BME280;22291;52.250;21.228;2023-02-17T21:28:54;99107.31;;;8.18;100.00
36254;BME280;22291;52.250;21.228;2023-02-17T21:31:21;99108.19;;;8.16;100.00
36254;BME280;22291;52.250;21.228;2023-02-17T21:33:47;99092.34;;;8.14;100.00
36254;BME280;22291;52.250;21.228;2023-02-17T21:36:15;99089.80;;;8.18;100.00
36254;BME280;22291;52.250;21.228;2023-02-17T21:38:46;99083.20;;;8.21;100.00
36254;BME280;22291;52.250;21.228;2023-02-17T21:41:21;99073.70;;;8.24;100.00
36254;BME280;22291;52.250;21.228;2023-02-17T21:43:47;99084.70;;;8.25;100.00
36254;BME280;22291;52.250;21.228;2023-02-17T21:46:37;99076.55;;;8.28;100.00
36254;BME280;22291;52.250;21.228;2023-02-17T21:49:05;99077.89;;;8.28;100.00
36254;BME280;22291;52.250;21.228;2023-02-17T21:51:36;99075.52;;;8.26;100.00
36254;BME280;22291;52.250;21.228;2023-02-17T21:54:04;99090.23;;;8.29;100.00
36254;BME280;22291;52.250;21.228;2023-02-17T21:56:33;99077.33;;;8.28;100.00
36254;BME280;22291;52.250;21.228;2023-02-17T21:59:04;99069.70;;;8.30;100.00
36254;BME280;22291;52.250;21.228;2023-02-17T22:01:32;99087.46;;;8.31;100.00
36254;BME280;22291;52.250;21.228;2023-02-17T22:04:00;99076.69;;;8.31;100.00
36254;BME280;22291;52.250;21.228;2023-02-17T22:06:30;99074.52;;;8.31;100.00
36254;BME280;22291;52.250;21.228;2023-02-17T22:08:59;99075.98;;;8.28;100.00
36254;BME280;22291;52.250;21.228;2023-02-17T22:11:30;99093.03;;;8.26;100.00
36254;BME280;22291;52.250;21.228;2023-02-17T22:14:01;99075.70;;;8.21;100.00
36254;BME280;22291;52.250;21.228;2023-02-17T22:16:33;99090.12;;;8.16;100.00
36254;BME280;22291;52.250;21.228;2023-02-17T22:19:05;99094.09;;;8.10;100.00
36254;BME280;22291;52.250;21.228;2023-02-17T22:21:34;99118.50;;;8.05;100.00
36254;BME280;22291;52.250;21.228;2023-02-17T22:24:02;99098.25;;;7.99;100.00
36254;BME280;22291;52.250;21.228;2023-02-17T22:26:32;99089.78;;;7.94;100.00
36254;BME280;22291;52.250;21.228;2023-02-17T22:28:58;99103.98;;;7.89;100.00
36254;BME280;22291;52.250;21.228;2023-02-17T22:31:28;99097.09;;;7.85;100.00
36254;BME280;22291;52.250;21.228;2023-02-17T22:34:00;99088.38;;;7.79;100.00
36254;BME280;22291;52.250;21.228;2023-02-17T22:36:31;99102.81;;;7.75;100.00
36254;BME280;22291;52.250;21.228;2023-02-17T22:39:03;99095.13;;;7.71;100.00
36254;BME280;22291;52.250;21.228;2023-02-17T22:41:33;99092.38;;;7.64;100.00
36254;BME280;22291;52.250;21.228;2023-02-17T22:44:02;99107.31;;;7.59;100.00
36254;BME280;22291;52.250;21.228;2023-02-17T22:46:29;99106.23;;;7.52;100.00
36254;BME280;22291;52.250;21.228;2023-02-17T22:48:58;99086.83;;;7.43;100.00
36254;BME280;22291;52.250;21.228;2023-02-17T22:51:33;99096.97;;;7.38;100.00
36254;BME280;22291;52.250;21.228;2023-02-17T22:53:59;99097.70;;;7.32;100.00
36254;BME280;22291;52.250;21.228;2023-02-17T22:56:29;99101.63;;;7.26;100.00
36254;BME280;22291;52.250;21.228;2023-02-17T22:58:58;99105.88;;;7.18;100.00
36254;BME280;22291;52.250;21.228;2023-02-17T23:01:33;99096.63;;;7.13;100.00
36254;BME280;22291;52.250;21.228;2023-02-17T23:04:04;99104.06;;;7.07;100.00
36254;BME280;22291;52.250;21.228;2023-02-17T23:06:37;99110.38;;;7.03;100.00
36254;BME280;22291;52.250;21.228;2023-02-17T23:09:05;99107.52;;;6.99;100.00
36254;BME280;22291;52.250;21.228;2023-02-17T23:11:36;99104.11;;;6.96;100.00
36254;BME280;22291;52.250;21.228;2023-02-17T23:17:07;99090.19;;;6.85;100.00
36254;BME280;22291;52.250;21.228;2023-02-17T23:19:37;99105.53;;;6.85;100.00
36254;BME280;22291;52.250;21.228;2023-02-17T23:22:14;99110.66;;;6.84;100.00
36254;BME280;22291;52.250;21.228;2023-02-17T23:24:43;99119.50;;;6.84;100.00
36254;BME280;22291;52.250;21.228;2023-02-17T23:27:14;99127.09;;;6.82;100.00
36254;BME280;22291;52.250;21.228;2023-02-17T23:29:42;99123.14;;;6.80;100.00
36254;BME280;22291;52.250;21.228;2023-02-17T23:32:08;99128.11;;;6.75;98.80
36254;BME280;22291;52.250;21.228;2023-02-17T23:34:35;99126.34;;;6.70;98.69
36254;BME280;22291;52.250;21.228;2023-02-17T23:37:01;99122.45;;;6.65;98.22
36254;BME280;22291;52.250;21.228;2023-02-17T23:39:27;99130.91;;;6.61;97.88
36254;BME280;22291;52.250;21.228;2023-02-17T23:41:53;99118.09;;;6.58;98.53
36254;BME280;22291;52.250;21.228;2023-02-17T23:44:19;99120.05;;;6.55;98.04
36254;BME280;22291;52.250;21.228;2023-02-17T23:46:48;99122.81;;;6.52;98.19
36254;BME280;22291;52.250;21.228;2023-02-17T23:49:16;99127.16;;;6.51;96.86
36254;BME280;22291;52.250;21.228;2023-02-17T23:51:43;99122.09;;;6.49;97.61
36254;BME280;22291;52.250;21.228;2023-02-17T23:54:13;99125.95;;;6.46;97.00
36254;BME280;22291;52.250;21.228;2023-02-17T23:56:40;99122.53;;;6.43;96.55
36254;BME280;22291;52.250;21.228;2023-02-17T23:59:09;99127.13;;;6.42;96.23
